sensor_id;sensor_type;location;lat;lon;timestamp;P1;durP1;ratioP1;P2;durP2;ratioP2
53652;SDS011;39553;52.954;5.932;2022-12-20T00:01:17;8.05;;;3.90;;
53652;SDS011;39553;52.954;5.932;2022-12-20T00:03:49;11.40;;;3.80;;
53652;SDS011;39553;52.954;5.932;2022-12-20T00:06:16;4.65;;;3.33;;
53652;SDS011;39553;52.954;5.932;2022-12-20T00:08:42;5.53;;;3.95;;
53652;SDS011;39553;52.954;5.932;2022-12-20T00:11:09;5.32;;;3.03;;
53652;SDS011;39553;52.954;5.932;2022-12-20T00:13:35;8.55;;;4.10;;
53652;SDS011;39553;52.954;5.932;2022-12-20T00:16:12;7.72;;;4.45;;
53652;SDS011;39553;52.954;5.932;2022-12-20T00:18:40;6.15;;;3.13;;
53652;SDS011;39553;52.954;5.932;2022-12-20T00:21:08;6.82;;;3.60;;
53652;SDS011;39553;52.954;5.932;2022-12-20T00:23:36;6.45;;;4.20;;
53652;SDS011;39553;52.954;5.932;2022-12-20T00:26:04;6.93;;;3.85;;
53652;SDS011;39553;52.954;5.932;2022-12-20T00:28:37;6.43;;;3.72;;
53652;SDS011;39553;52.954;5.932;2022-12-20T00:31:04;5.95;;;3.75;;
53652;SDS011;39553;52.954;5.932;2022-12-20T00:33:31;6.13;;;3.63;;
53652;SDS011;39553;52.954;5.932;2022-12-20T00:35:58;8.20;;;4.47;;
53652;SDS011;39553;52.954;5.932;2022-12-20T00:38:23;6.63;;;3.65;;
53652;SDS011;39553;52.954;5.932;2022-12-20T00:43:51;5.97;;;3.17;;
53652;SDS011;39553;52.954;5.932;2022-12-20T00:46:17;11.70;;;4.60;;
53652;SDS011;39553;52.954;5.932;2022-12-20T00:48:44;5.50;;;3.63;;
53652;SDS011;39553;52.954;5.932;2022-12-20T00:51:15;5.35;;;3.67;;
53652;SDS011;39553;52.954;5.932;2022-12-20T00:53:42;5.70;;;3.50;;
53652;SDS011;39553;52.954;5.932;2022-12-20T00:56:08;5.88;;;3.67;;
53652;SDS011;39553;52.954;5.932;2022-12-20T00:58:35;6.35;;;3.80;;
53652;SDS011;39553;52.954;5.932;2022-12-20T01:01:04;6.63;;;3.42;;
53652;SDS011;39553;52.954;5.932;2022-12-20T01:03:31;4.15;;;3.03;;
53652;SDS011;39553;52.954;5.932;2022-12-20T01:05:58;4.70;;;3.63;;
53652;SDS011;39553;52.954;5.932;2022-12-20T01:08:26;7.22;;;3.33;;
53652;SDS011;39553;52.954;5.932;2022-12-20T01:10:57;5.32;;;3.30;;
53652;SDS011;39553;52.954;5.932;2022-12-20T01:13:25;3.85;;;2.83;;
53652;SDS011;39553;52.954;5.932;2022-12-20T01:15:51;7.68;;;3.22;;
53652;SDS011;39553;52.954;5.932;2022-12-20T01:18:17;7.75;;;3.40;;
53652;SDS011;39553;52.954;5.932;2022-12-20T01:20:43;5.68;;;3.28;;
53652;SDS011;39553;52.954;5.932;2022-12-20T01:23:08;6.00;;;3.45;;
53652;SDS011;39553;52.954;5.932;2022-12-20T01:25:34;8.15;;;2.95;;
53652;SDS011;39553;52.954;5.932;2022-12-20T01:28:00;6.95;;;3.65;;
53652;SDS011;39553;52.954;5.932;2022-12-20T01:30:26;5.80;;;3.05;;
53652;SDS011;39553;52.954;5.932;2022-12-20T01:32:51;6.90;;;3.30;;
53652;SDS011;39553;52.954;5.932;2022-12-20T01:35:17;4.35;;;2.70;;
53652;SDS011;39553;52.954;5.932;2022-12-20T01:37:43;6.78;;;3.50;;
53652;SDS011;39553;52.954;5.932;2022-12-20T01:40:09;5.47;;;3.03;;
53652;SDS011;39553;52.954;5.932;2022-12-20T01:42:35;6.43;;;3.58;;
53652;SDS011;39553;52.954;5.932;2022-12-20T01:45:02;5.68;;;3.30;;
53652;SDS011;39553;52.954;5.932;2022-12-20T01:47:33;6.55;;;3.97;;
53652;SDS011;39553;52.954;5.932;2022-12-20T01:50:00;6.60;;;3.40;;
53652;SDS011;39553;52.954;5.932;2022-12-20T01:52:36;6.97;;;3.35;;
53652;SDS011;39553;52.954;5.932;2022-12-20T01:55:10;6.22;;;3.40;;
53652;SDS011;39553;52.954;5.932;2022-12-20T01:57:51;5.57;;;2.95;;
53652;SDS011;39553;52.954;5.932;2022-12-20T02:00:26;6.78;;;3.13;;
53652;SDS011;39553;52.954;5.932;2022-12-20T02:02:52;6.88;;;3.17;;
53652;SDS011;39553;52.954;5.932;2022-12-20T02:05:20;4.97;;;3.67;;
53652;SDS011;39553;52.954;5.932;2022-12-20T02:07:48;7.95;;;2.97;;
53652;SDS011;39553;52.954;5.932;2022-12-20T02:10:16;5.90;;;3.85;;
53652;SDS011;39553;52.954;5.932;2022-12-20T02:12:45;4.50;;;2.85;;
53652;SDS011;39553;52.954;5.932;2022-12-20T02:25:49;4.85;;;3.20;;
53652;SDS011;39553;52.954;5.932;2022-12-20T02:28:44;7.20;;;3.60;;
53652;SDS011;39553;52.954;5.932;2022-12-20T02:31:32;5.25;;;3.28;;
53652;SDS011;39553;52.954;5.932;2022-12-20T02:34:03;8.95;;;3.90;;
53652;SDS011;39553;52.954;5.932;2022-12-20T02:36:31;7.10;;;3.60;;
53652;SDS011;39553;52.954;5.932;2022-12-20T02:38:59;8.27;;;4.18;;
53652;SDS011;39553;52.954;5.932;2022-12-20T02:41:26;5.38;;;3.70;;
53652;SDS011;39553;52.954;5.932;2022-12-20T02:44:01;7.18;;;3.65;;
53652;SDS011;39553;52.954;5.932;2022-12-20T02:46:49;5.28;;;3.90;;
53652;SDS011;39553;52.954;5.932;2022-12-20T02:49:16;7.07;;;3.70;;
53652;SDS011;39553;52.954;5.932;2022-12-20T02:51:46;6.50;;;3.45;;
53652;SDS011;39553;52.954;5.932;2022-12-20T02:54:15;7.40;;;3.67;;
53652;SDS011;39553;52.954;5.932;2022-12-20T02:56:49;9.23;;;4.20;;
53652;SDS011;39553;52.954;5.932;2022-12-20T02:59:38;7.72;;;3.75;;
53652;SDS011;39553;52.954;5.932;2022-12-20T03:02:28;7.30;;;4.47;;
53652;SDS011;39553;52.954;5.932;2022-12-20T03:05:15;5.68;;;4.10;;
53652;SDS011;39553;52.954;5.932;2022-12-20T03:07:41;6.50;;;3.63;;
53652;SDS011;39553;52.954;5.932;2022-12-20T03:10:07;5.07;;;2.97;;
53652;SDS011;39553;52.954;5.932;2022-12-20T03:12:33;4.72;;;3.90;;
53652;SDS011;39553;52.954;5.932;2022-12-20T03:14:59;5.70;;;3.88;;
53652;SDS011;39553;52.954;5.932;2022-12-20T03:17:26;5.93;;;3.65;;
53652;SDS011;39553;52.954;5.932;2022-12-20T03:19:52;5.55;;;3.30;;
53652;SDS011;39553;52.954;5.932;2022-12-20T03:22:17;5.03;;;3.15;;
53652;SDS011;39553;52.954;5.932;2022-12-20T03:24:43;8.88;;;4.03;;
53652;SDS011;39553;52.954;5.932;2022-12-20T03:27:09;5.38;;;3.53;;
53652;SDS011;39553;52.954;5.932;2022-12-20T03:29:35;6.15;;;3.33;;
53652;SDS011;39553;52.954;5.932;2022-12-20T03:32:01;7.28;;;3.78;;
53652;SDS011;39553;52.954;5.932;2022-12-20T03:34:26;8.13;;;4.30;;
53652;SDS011;39553;52.954;5.932;2022-12-20T03:36:52;4.80;;;3.55;;
53652;SDS011;39553;52.954;5.932;2022-12-20T03:39:18;6.35;;;3.80;;
53652;SDS011;39553;52.954;5.932;2022-12-20T03:41:43;6.18;;;3.30;;
53652;SDS011;39553;52.954;5.932;2022-12-20T03:44:09;3.95;;;3.42;;
53652;SDS011;39553;52.954;5.932;2022-12-20T03:46:35;5.70;;;3.97;;
53652;SDS011;39553;52.954;5.932;2022-12-20T03:49:01;5.78;;;3.50;;
53652;SDS011;39553;52.954;5.932;2022-12-20T03:51:27;6.45;;;3.30;;
53652;SDS011;39553;52.954;5.932;2022-12-20T03:53:52;8.88;;;3.63;;
53652;SDS011;39553;52.954;5.932;2022-12-20T03:56:18;6.05;;;3.70;;
53652;SDS011;39553;52.954;5.932;2022-12-20T03:58:44;5.22;;;3.60;;
53652;SDS011;39553;52.954;5.932;2022-12-20T04:01:23;8.43;;;3.78;;
53652;SDS011;39553;52.954;5.932;2022-12-20T04:03:50;7.40;;;3.92;;
53652;SDS011;39553;52.954;5.932;2022-12-20T04:06:16;6.78;;;4.38;;
53652;SDS011;39553;52.954;5.932;2022-12-20T04:08:42;6.30;;;4.18;;
53652;SDS011;39553;52.954;5.932;2022-12-20T04:11:08;6.47;;;4.13;;
53652;SDS011;39553;52.954;5.932;2022-12-20T04:13:44;8.70;;;4.30;;
53652;SDS011;39553;52.954;5.932;2022-12-20T04:16:11;6.80;;;4.35;;
53652;SDS011;39553;52.954;5.932;2022-12-20T04:18:41;7.22;;;4.47;;
53652;SDS011;39553;52.954;5.932;2022-12-20T04:21:07;6.95;;;4.10;;
53652;SDS011;39553;52.954;5.932;2022-12-20T04:23:34;5.15;;;3.83;;
53652;SDS011;39553;52.954;5.932;2022-12-20T04:26:01;5.22;;;3.65;;
53652;SDS011;39553;52.954;5.932;2022-12-20T04:28:28;10.10;;;4.63;;
53652;SDS011;39553;52.954;5.932;2022-12-20T04:30:54;7.35;;;4.30;;
53652;SDS011;39553;52.954;5.932;2022-12-20T04:33:21;10.30;;;4.45;;
53652;SDS011;39553;52.954;5.932;2022-12-20T04:35:47;6.22;;;4.03;;
53652;SDS011;39553;52.954;5.932;2022-12-20T04:38:13;6.78;;;4.50;;
53652;SDS011;39553;52.954;5.932;2022-12-20T04:40:39;6.68;;;4.03;;
53652;SDS011;39553;52.954;5.932;2022-12-20T04:43:05;5.35;;;3.97;;
53652;SDS011;39553;52.954;5.932;2022-12-20T04:45:32;7.22;;;4.40;;
53652;SDS011;39553;52.954;5.932;2022-12-20T04:47:58;6.32;;;3.90;;
53652;SDS011;39553;52.954;5.932;2022-12-20T04:50:23;7.50;;;4.15;;
53652;SDS011;39553;52.954;5.932;2022-12-20T04:52:49;6.45;;;3.72;;
53652;SDS011;39553;52.954;5.932;2022-12-20T04:55:37;6.60;;;3.58;;
53652;SDS011;39553;52.954;5.932;2022-12-20T04:58:04;4.60;;;3.67;;
53652;SDS011;39553;52.954;5.932;2022-12-20T05:00:30;5.90;;;3.47;;
53652;SDS011;39553;52.954;5.932;2022-12-20T05:02:56;5.05;;;3.00;;
53652;SDS011;39553;52.954;5.932;2022-12-20T05:05:22;5.45;;;3.63;;
53652;SDS011;39553;52.954;5.932;2022-12-20T05:07:48;8.05;;;4.13;;
53652;SDS011;39553;52.954;5.932;2022-12-20T05:10:14;6.32;;;3.30;;
53652;SDS011;39553;52.954;5.932;2022-12-20T05:12:40;10.18;;;4.05;;
53652;SDS011;39553;52.954;5.932;2022-12-20T05:15:05;5.57;;;3.05;;
53652;SDS011;39553;52.954;5.932;2022-12-20T05:17:32;5.85;;;3.25;;
53652;SDS011;39553;52.954;5.932;2022-12-20T05:19:58;7.65;;;3.53;;
53652;SDS011;39553;52.954;5.932;2022-12-20T05:22:24;4.10;;;3.35;;
53652;SDS011;39553;52.954;5.932;2022-12-20T05:25:11;5.28;;;3.70;;
53652;SDS011;39553;52.954;5.932;2022-12-20T05:27:56;5.80;;;3.80;;
53652;SDS011;39553;52.954;5.932;2022-12-20T05:30:22;6.72;;;4.13;;
53652;SDS011;39553;52.954;5.932;2022-12-20T05:32:48;5.93;;;3.30;;
53652;SDS011;39553;52.954;5.932;2022-12-20T05:35:14;8.60;;;3.83;;
53652;SDS011;39553;52.954;5.932;2022-12-20T05:37:40;8.02;;;3.38;;
53652;SDS011;39553;52.954;5.932;2022-12-20T05:40:06;5.43;;;3.03;;
53652;SDS011;39553;52.954;5.932;2022-12-20T05:42:33;5.63;;;3.10;;
53652;SDS011;39553;52.954;5.932;2022-12-20T05:44:59;8.43;;;3.90;;
53652;SDS011;39553;52.954;5.932;2022-12-20T05:47:26;9.88;;;3.42;;
53652;SDS011;39553;52.954;5.932;2022-12-20T05:49:52;10.45;;;3.22;;
53652;SDS011;39553;52.954;5.932;2022-12-20T05:52:18;7.60;;;4.00;;
53652;SDS011;39553;52.954;5.932;2022-12-20T05:54:43;5.47;;;3.70;;
53652;SDS011;39553;52.954;5.932;2022-12-20T05:57:09;5.53;;;3.67;;
53652;SDS011;39553;52.954;5.932;2022-12-20T05:59:35;7.57;;;3.35;;
53652;SDS011;39553;52.954;5.932;2022-12-20T06:02:01;5.50;;;3.35;;
53652;SDS011;39553;52.954;5.932;2022-12-20T06:04:26;5.85;;;3.30;;
53652;SDS011;39553;52.954;5.932;2022-12-20T06:06:52;4.22;;;3.63;;
53652;SDS011;39553;52.954;5.932;2022-12-20T06:09:18;6.50;;;3.30;;
53652;SDS011;39553;52.954;5.932;2022-12-20T06:11:44;5.90;;;3.50;;
53652;SDS011;39553;52.954;5.932;2022-12-20T06:14:11;6.45;;;3.60;;
53652;SDS011;39553;52.954;5.932;2022-12-20T06:16:37;8.18;;;3.95;;
53652;SDS011;39553;52.954;5.932;2022-12-20T06:19:03;6.30;;;3.88;;
53652;SDS011;39553;52.954;5.932;2022-12-20T06:21:28;5.15;;;3.55;;
53652;SDS011;39553;52.954;5.932;2022-12-20T06:23:56;5.60;;;3.38;;
53652;SDS011;39553;52.954;5.932;2022-12-20T06:26:21;9.27;;;3.70;;
53652;SDS011;39553;52.954;5.932;2022-12-20T06:28:48;6.15;;;4.10;;
53652;SDS011;39553;52.954;5.932;2022-12-20T06:31:16;5.88;;;3.63;;
53652;SDS011;39553;52.954;5.932;2022-12-20T06:33:45;7.57;;;4.53;;
53652;SDS011;39553;52.954;5.932;2022-12-20T06:36:11;6.65;;;3.80;;
53652;SDS011;39553;52.954;5.932;2022-12-20T06:38:37;6.60;;;4.07;;
53652;SDS011;39553;52.954;5.932;2022-12-20T06:41:03;6.68;;;4.40;;
53652;SDS011;39553;52.954;5.932;2022-12-20T06:43:29;8.05;;;4.43;;
53652;SDS011;39553;52.954;5.932;2022-12-20T06:45:55;8.55;;;4.43;;
53652;SDS011;39553;52.954;5.932;2022-12-20T06:48:20;8.18;;;4.53;;
53652;SDS011;39553;52.954;5.932;2022-12-20T06:50:47;8.63;;;4.72;;
53652;SDS011;39553;52.954;5.932;2022-12-20T06:53:14;5.07;;;4.00;;
53652;SDS011;39553;52.954;5.932;2022-12-20T06:55:40;9.43;;;4.82;;
53652;SDS011;39553;52.954;5.932;2022-12-20T06:58:06;7.00;;;4.95;;
53652;SDS011;39553;52.954;5.932;2022-12-20T07:00:32;8.05;;;4.55;;
53652;SDS011;39553;52.954;5.932;2022-12-20T07:02:58;9.40;;;5.25;;
53652;SDS011;39553;52.954;5.932;2022-12-20T07:05:24;7.07;;;4.72;;
53652;SDS011;39553;52.954;5.932;2022-12-20T07:07:51;7.63;;;4.97;;
53652;SDS011;39553;52.954;5.932;2022-12-20T07:10:17;5.65;;;4.38;;
53652;SDS011;39553;52.954;5.932;2022-12-20T07:12:43;7.15;;;4.65;;
53652;SDS011;39553;52.954;5.932;2022-12-20T07:15:09;6.20;;;4.50;;
53652;SDS011;39553;52.954;5.932;2022-12-20T07:17:35;5.63;;;3.63;;
53652;SDS011;39553;52.954;5.932;2022-12-20T07:20:00;7.53;;;3.63;;
53652;SDS011;39553;52.954;5.932;2022-12-20T07:22:26;8.55;;;4.50;;
53652;SDS011;39553;52.954;5.932;2022-12-20T07:24:52;8.18;;;4.72;;
53652;SDS011;39553;52.954;5.932;2022-12-20T07:27:17;5.68;;;3.70;;
53652;SDS011;39553;52.954;5.932;2022-12-20T07:29:43;11.68;;;4.47;;
53652;SDS011;39553;52.954;5.932;2022-12-20T07:32:10;7.45;;;3.70;;
53652;SDS011;39553;52.954;5.932;2022-12-20T07:34:38;6.47;;;4.30;;
53652;SDS011;39553;52.954;5.932;2022-12-20T07:37:04;7.43;;;4.80;;
53652;SDS011;39553;52.954;5.932;2022-12-20T07:39:30;7.72;;;4.43;;
53652;SDS011;39553;52.954;5.932;2022-12-20T07:41:56;7.63;;;4.10;;
53652;SDS011;39553;52.954;5.932;2022-12-20T07:44:22;6.00;;;4.05;;
53652;SDS011;39553;52.954;5.932;2022-12-20T07:46:48;6.82;;;4.03;;
53652;SDS011;39553;52.954;5.932;2022-12-20T07:49:13;6.30;;;4.00;;
53652;SDS011;39553;52.954;5.932;2022-12-20T07:51:44;7.60;;;4.00;;
53652;SDS011;39553;52.954;5.932;2022-12-20T07:54:16;7.80;;;4.43;;
53652;SDS011;39553;52.954;5.932;2022-12-20T07:56:49;6.22;;;3.80;;
53652;SDS011;39553;52.954;5.932;2022-12-20T07:59:21;9.00;;;3.90;;
53652;SDS011;39553;52.954;5.932;2022-12-20T08:01:49;8.55;;;4.65;;
53652;SDS011;39553;52.954;5.932;2022-12-20T08:04:20;5.38;;;3.78;;
53652;SDS011;39553;52.954;5.932;2022-12-20T08:06:48;10.80;;;4.30;;
53652;SDS011;39553;52.954;5.932;2022-12-20T08:09:16;6.93;;;4.20;;
53652;SDS011;39553;52.954;5.932;2022-12-20T08:11:44;10.85;;;4.53;;
53652;SDS011;39553;52.954;5.932;2022-12-20T08:14:12;4.93;;;4.30;;
53652;SDS011;39553;52.954;5.932;2022-12-20T08:16:38;6.03;;;3.58;;
53652;SDS011;39553;52.954;5.932;2022-12-20T08:19:04;4.80;;;3.15;;
53652;SDS011;39553;52.954;5.932;2022-12-20T08:21:30;6.88;;;3.80;;
53652;SDS011;39553;52.954;5.932;2022-12-20T08:23:56;8.77;;;3.67;;
53652;SDS011;39553;52.954;5.932;2022-12-20T08:26:21;5.95;;;3.60;;
53652;SDS011;39553;52.954;5.932;2022-12-20T08:28:47;8.45;;;3.22;;
53652;SDS011;39553;52.954;5.932;2022-12-20T08:31:13;6.97;;;3.65;;
53652;SDS011;39553;52.954;5.932;2022-12-20T08:33:38;5.68;;;3.17;;
53652;SDS011;39553;52.954;5.932;2022-12-20T08:36:06;4.82;;;2.92;;
53652;SDS011;39553;52.954;5.932;2022-12-20T08:38:33;6.82;;;3.28;;
53652;SDS011;39553;52.954;5.932;2022-12-20T08:41:07;9.07;;;4.20;;
53652;SDS011;39553;52.954;5.932;2022-12-20T08:43:37;5.63;;;3.20;;
53652;SDS011;39553;52.954;5.932;2022-12-20T08:46:04;7.50;;;3.17;;
53652;SDS011;39553;52.954;5.932;2022-12-20T08:48:31;5.78;;;3.15;;
53652;SDS011;39553;52.954;5.932;2022-12-20T08:50:58;7.00;;;2.75;;
53652;SDS011;39553;52.954;5.932;2022-12-20T08:53:25;4.00;;;2.58;;
53652;SDS011;39553;52.954;5.932;2022-12-20T08:56:02;6.20;;;2.65;;
53652;SDS011;39553;52.954;5.932;2022-12-20T08:58:29;7.88;;;3.40;;
53652;SDS011;39553;52.954;5.932;2022-12-20T09:00:57;5.55;;;3.30;;
53652;SDS011;39553;52.954;5.932;2022-12-20T09:03:25;6.55;;;3.13;;
53652;SDS011;39553;52.954;5.932;2022-12-20T09:05:51;4.85;;;2.85;;
53652;SDS011;39553;52.954;5.932;2022-12-20T09:08:20;4.50;;;2.72;;
53652;SDS011;39553;52.954;5.932;2022-12-20T09:10:45;4.05;;;2.58;;
53652;SDS011;39553;52.954;5.932;2022-12-20T09:13:11;5.93;;;2.70;;
53652;SDS011;39553;52.954;5.932;2022-12-20T09:15:37;3.85;;;2.50;;
53652;SDS011;39553;52.954;5.932;2022-12-20T09:18:03;7.75;;;2.60;;
53652;SDS011;39553;52.954;5.932;2022-12-20T09:20:29;4.70;;;2.50;;
53652;SDS011;39553;52.954;5.932;2022-12-20T09:22:57;5.97;;;3.05;;
53652;SDS011;39553;52.954;5.932;2022-12-20T09:25:25;7.28;;;3.05;;
53652;SDS011;39553;52.954;5.932;2022-12-20T09:27:51;6.72;;;3.47;;
53652;SDS011;39553;52.954;5.932;2022-12-20T09:30:20;5.75;;;2.38;;
53652;SDS011;39553;52.954;5.932;2022-12-20T09:32:47;4.53;;;2.15;;
53652;SDS011;39553;52.954;5.932;2022-12-20T09:35:13;6.10;;;3.08;;
53652;SDS011;39553;52.954;5.932;2022-12-20T09:37:39;4.25;;;2.50;;
53652;SDS011;39553;52.954;5.932;2022-12-20T09:40:06;5.57;;;2.70;;
53652;SDS011;39553;52.954;5.932;2022-12-20T09:42:38;3.80;;;2.80;;
53652;SDS011;39553;52.954;5.932;2022-12-20T09:45:05;3.00;;;2.35;;
53652;SDS011;39553;52.954;5.932;2022-12-20T09:47:34;5.05;;;3.33;;
53652;SDS011;39553;52.954;5.932;2022-12-20T09:50:02;5.10;;;3.25;;
53652;SDS011;39553;52.954;5.932;2022-12-20T10:00:34;8.75;;;2.88;;
53652;SDS011;39553;52.954;5.932;2022-12-20T10:03:44;6.32;;;2.65;;
53652;SDS011;39553;52.954;5.932;2022-12-20T10:08:56;7.85;;;3.25;;
53652;SDS011;39553;52.954;5.932;2022-12-20T10:16:56;5.53;;;2.83;;
53652;SDS011;39553;52.954;5.932;2022-12-20T10:19:43;7.32;;;3.22;;
53652;SDS011;39553;52.954;5.932;2022-12-20T10:25:28;4.82;;;2.47;;
53652;SDS011;39553;52.954;5.932;2022-12-20T10:27:56;5.05;;;2.88;;
53652;SDS011;39553;52.954;5.932;2022-12-20T10:30:25;5.28;;;2.65;;
53652;SDS011;39553;52.954;5.932;2022-12-20T10:32:53;5.75;;;2.85;;
53652;SDS011;39553;52.954;5.932;2022-12-20T10:37:56;4.85;;;2.28;;
53652;SDS011;39553;52.954;5.932;2022-12-20T10:40:35;6.18;;;3.33;;
53652;SDS011;39553;52.954;5.932;2022-12-20T10:43:13;4.10;;;2.50;;
53652;SDS011;39553;52.954;5.932;2022-12-20T10:45:44;5.40;;;2.95;;
53652;SDS011;39553;52.954;5.932;2022-12-20T10:48:31;4.40;;;2.72;;
53652;SDS011;39553;52.954;5.932;2022-12-20T10:53:34;4.07;;;2.63;;
53652;SDS011;39553;52.954;5.932;2022-12-20T10:59:27;4.38;;;2.60;;
53652;SDS011;39553;52.954;5.932;2022-12-20T11:01:54;4.68;;;2.72;;
53652;SDS011;39553;52.954;5.932;2022-12-20T11:04:33;5.97;;;2.88;;
53652;SDS011;39553;52.954;5.932;2022-12-20T11:07:02;5.32;;;3.20;;
53652;SDS011;39553;52.954;5.932;2022-12-20T11:10:29;4.88;;;2.50;;
53652;SDS011;39553;52.954;5.932;2022-12-20T11:12:52;4.80;;;2.65;;
53652;SDS011;39553;52.954;5.932;2022-12-20T11:15:20;7.40;;;3.03;;
53652;SDS011;39553;52.954;5.932;2022-12-20T11:17:49;5.88;;;3.42;;
53652;SDS011;39553;52.954;5.932;2022-12-20T11:20:21;5.85;;;3.22;;
53652;SDS011;39553;52.954;5.932;2022-12-20T11:22:56;5.80;;;2.97;;
53652;SDS011;39553;52.954;5.932;2022-12-20T11:28:41;5.80;;;3.03;;
53652;SDS011;39553;52.954;5.932;2022-12-20T11:37:07;7.47;;;3.80;;
53652;SDS011;39553;52.954;5.932;2022-12-20T11:50:12;6.38;;;3.17;;
53652;SDS011;39553;52.954;5.932;2022-12-20T11:52:46;6.85;;;3.83;;
53652;SDS011;39553;52.954;5.932;2022-12-20T11:55:26;6.80;;;3.88;;
53652;SDS011;39553;52.954;5.932;2022-12-20T11:58:00;7.35;;;3.88;;
53652;SDS011;39553;52.954;5.932;2022-12-20T12:00:35;6.47;;;4.18;;
53652;SDS011;39553;52.954;5.932;2022-12-20T12:03:25;8.63;;;4.50;;
53652;SDS011;39553;52.954;5.932;2022-12-20T12:06:01;9.93;;;4.40;;
53652;SDS011;39553;52.954;5.932;2022-12-20T12:08:39;8.18;;;4.68;;
53652;SDS011;39553;52.954;5.932;2022-12-20T12:11:14;6.70;;;4.95;;
53652;SDS011;39553;52.954;5.932;2022-12-20T12:13:44;7.07;;;5.03;;
53652;SDS011;39553;52.954;5.932;2022-12-20T12:16:19;8.02;;;5.03;;
53652;SDS011;39553;52.954;5.932;2022-12-20T12:19:09;9.82;;;5.70;;
53652;SDS011;39553;52.954;5.932;2022-12-20T12:21:41;9.95;;;5.63;;
53652;SDS011;39553;52.954;5.932;2022-12-20T12:24:29;8.38;;;5.70;;
53652;SDS011;39553;52.954;5.932;2022-12-20T12:27:00;9.73;;;5.78;;
53652;SDS011;39553;52.954;5.932;2022-12-20T12:29:29;8.27;;;5.97;;
53652;SDS011;39553;52.954;5.932;2022-12-20T12:32:16;8.75;;;4.45;;
53652;SDS011;39553;52.954;5.932;2022-12-20T12:46:27;11.07;;;6.18;;
53652;SDS011;39553;52.954;5.932;2022-12-20T12:49:07;10.43;;;5.85;;
53652;SDS011;39553;52.954;5.932;2022-12-20T12:51:42;9.80;;;6.25;;
53652;SDS011;39553;52.954;5.932;2022-12-20T12:56:46;8.70;;;4.90;;
53652;SDS011;39553;52.954;5.932;2022-12-20T13:04:55;13.38;;;6.10;;
53652;SDS011;39553;52.954;5.932;2022-12-20T13:20:24;8.27;;;6.03;;
53652;SDS011;39553;52.954;5.932;2022-12-20T13:25:33;9.18;;;6.65;;
53652;SDS011;39553;52.954;5.932;2022-12-20T13:33:45;7.63;;;4.97;;
53652;SDS011;39553;52.954;5.932;2022-12-20T13:36:29;8.57;;;6.55;;
53652;SDS011;39553;52.954;5.932;2022-12-20T13:39:03;9.13;;;6.35;;
53652;SDS011;39553;52.954;5.932;2022-12-20T13:41:50;13.02;;;6.30;;
53652;SDS011;39553;52.954;5.932;2022-12-20T13:44:35;9.50;;;5.82;;
53652;SDS011;39553;52.954;5.932;2022-12-20T13:49:54;9.73;;;6.57;;
53652;SDS011;39553;52.954;5.932;2022-12-20T13:52:28;14.13;;;7.82;;
53652;SDS011;39553;52.954;5.932;2022-12-20T13:54:57;9.00;;;6.07;;
53652;SDS011;39553;52.954;5.932;2022-12-20T13:57:47;13.10;;;8.20;;
53652;SDS011;39553;52.954;5.932;2022-12-20T14:00:21;9.75;;;6.60;;
53652;SDS011;39553;52.954;5.932;2022-12-20T14:02:49;11.02;;;6.55;;
53652;SDS011;39553;52.954;5.932;2022-12-20T14:05:30;11.00;;;7.43;;
53652;SDS011;39553;52.954;5.932;2022-12-20T14:07:58;10.48;;;7.35;;
53652;SDS011;39553;52.954;5.932;2022-12-20T14:10:32;11.80;;;8.60;;
53652;SDS011;39553;52.954;5.932;2022-12-20T14:12:59;13.00;;;7.95;;
53652;SDS011;39553;52.954;5.932;2022-12-20T14:15:29;11.00;;;7.40;;
53652;SDS011;39553;52.954;5.932;2022-12-20T14:18:03;9.75;;;7.43;;
53652;SDS011;39553;52.954;5.932;2022-12-20T14:20:43;12.07;;;7.75;;
53652;SDS011;39553;52.954;5.932;2022-12-20T14:23:13;12.73;;;7.75;;
53652;SDS011;39553;52.954;5.932;2022-12-20T14:25:44;12.88;;;8.95;;
53652;SDS011;39553;52.954;5.932;2022-12-20T14:28:25;8.50;;;6.70;;
53652;SDS011;39553;52.954;5.932;2022-12-20T14:31:19;13.05;;;9.40;;
53652;SDS011;39553;52.954;5.932;2022-12-20T14:33:46;16.10;;;9.43;;
53652;SDS011;39553;52.954;5.932;2022-12-20T14:38:45;12.65;;;9.45;;
53652;SDS011;39553;52.954;5.932;2022-12-20T14:44:10;17.25;;;10.23;;
53652;SDS011;39553;52.954;5.932;2022-12-20T14:46:57;12.95;;;9.50;;
53652;SDS011;39553;52.954;5.932;2022-12-20T14:49:26;17.85;;;9.65;;
53652;SDS011;39553;52.954;5.932;2022-12-20T15:08:16;18.33;;;13.00;;
53652;SDS011;39553;52.954;5.932;2022-12-20T15:10:47;21.05;;;12.52;;
53652;SDS011;39553;52.954;5.932;2022-12-20T15:13:17;20.35;;;12.93;;
53652;SDS011;39553;52.954;5.932;2022-12-20T15:15:44;21.10;;;12.50;;
53652;SDS011;39553;52.954;5.932;2022-12-20T15:18:14;26.60;;;13.55;;
53652;SDS011;39553;52.954;5.932;2022-12-20T15:20:42;26.42;;;16.23;;
53652;SDS011;39553;52.954;5.932;2022-12-20T15:23:19;19.15;;;13.57;;
53652;SDS011;39553;52.954;5.932;2022-12-20T15:25:46;21.95;;;13.73;;
53652;SDS011;39553;52.954;5.932;2022-12-20T15:28:14;18.00;;;13.38;;
53652;SDS011;39553;52.954;5.932;2022-12-20T15:30:45;17.52;;;13.27;;
53652;SDS011;39553;52.954;5.932;2022-12-20T15:33:13;21.75;;;14.10;;
53652;SDS011;39553;52.954;5.932;2022-12-20T15:35:48;20.77;;;13.57;;
53652;SDS011;39553;52.954;5.932;2022-12-20T15:38:17;23.38;;;14.32;;
53652;SDS011;39553;52.954;5.932;2022-12-20T15:40:51;24.42;;;15.82;;
53652;SDS011;39553;52.954;5.932;2022-12-20T15:43:19;26.90;;;15.32;;
53652;SDS011;39553;52.954;5.932;2022-12-20T15:45:47;24.00;;;15.38;;
53652;SDS011;39553;52.954;5.932;2022-12-20T15:48:20;24.48;;;16.08;;
53652;SDS011;39553;52.954;5.932;2022-12-20T15:50:48;24.05;;;14.77;;
53652;SDS011;39553;52.954;5.932;2022-12-20T15:53:31;21.02;;;13.18;;
53652;SDS011;39553;52.954;5.932;2022-12-20T15:55:58;23.45;;;15.10;;
53652;SDS011;39553;52.954;5.932;2022-12-20T15:58:25;26.50;;;12.85;;
53652;SDS011;39553;52.954;5.932;2022-12-20T16:00:56;25.50;;;15.20;;
53652;SDS011;39553;52.954;5.932;2022-12-20T16:03:28;26.77;;;16.98;;
53652;SDS011;39553;52.954;5.932;2022-12-20T16:05:55;21.20;;;13.23;;
53652;SDS011;39553;52.954;5.932;2022-12-20T16:08:21;27.25;;;15.43;;
53652;SDS011;39553;52.954;5.932;2022-12-20T16:10:48;24.27;;;12.35;;
53652;SDS011;39553;52.954;5.932;2022-12-20T16:13:19;26.92;;;13.23;;
53652;SDS011;39553;52.954;5.932;2022-12-20T16:15:47;32.05;;;18.55;;
53652;SDS011;39553;52.954;5.932;2022-12-20T16:18:15;28.60;;;17.13;;
53652;SDS011;39553;52.954;5.932;2022-12-20T16:20:41;31.75;;;17.45;;
53652;SDS011;39553;52.954;5.932;2022-12-20T16:23:17;27.73;;;15.32;;
53652;SDS011;39553;52.954;5.932;2022-12-20T16:25:47;25.52;;;18.15;;
53652;SDS011;39553;52.954;5.932;2022-12-20T16:28:14;29.00;;;17.27;;
53652;SDS011;39553;52.954;5.932;2022-12-20T16:30:41;34.70;;;18.48;;
53652;SDS011;39553;52.954;5.932;2022-12-20T16:33:12;30.02;;;17.83;;
53652;SDS011;39553;52.954;5.932;2022-12-20T16:35:44;35.40;;;18.60;;
53652;SDS011;39553;52.954;5.932;2022-12-20T16:38:11;33.15;;;18.48;;
53652;SDS011;39553;52.954;5.932;2022-12-20T16:40:36;30.98;;;16.67;;
53652;SDS011;39553;52.954;5.932;2022-12-20T16:43:02;34.88;;;19.92;;
53652;SDS011;39553;52.954;5.932;2022-12-20T16:45:29;36.97;;;20.30;;
53652;SDS011;39553;52.954;5.932;2022-12-20T16:47:56;35.80;;;20.17;;
53652;SDS011;39553;52.954;5.932;2022-12-20T16:50:23;31.95;;;19.30;;
53652;SDS011;39553;52.954;5.932;2022-12-20T16:52:50;37.83;;;18.58;;
53652;SDS011;39553;52.954;5.932;2022-12-20T16:55:23;39.42;;;21.73;;
53652;SDS011;39553;52.954;5.932;2022-12-20T16:57:52;40.67;;;20.88;;
53652;SDS011;39553;52.954;5.932;2022-12-20T17:00:22;42.40;;;20.52;;
53652;SDS011;39553;52.954;5.932;2022-12-20T17:02:49;40.72;;;22.05;;
53652;SDS011;39553;52.954;5.932;2022-12-20T17:05:37;38.22;;;20.02;;